Aérodrome :
LOGIN :

S'inscrire | Disclaimer

   EN    FR    IT 

 










Légende :    VFR   VFR Marginal   IFR   IFR Intensif   IFR Très Intensif
Visi : 
Plafond : 
>= 8 km
>= 3000ft
5 à 8 km
1000 à 3000 ft
1500m à 5 km
500 à 1000 ft
800 à 1500m
200 à 500 ft
< 800m
< 200 ft
Symboles :   Orages  Brouillard  Fortes neiges  Fortes précipitations  Vent > 20 kt
SIGMETs :   Divers  Orages  Givrage  Turbulence  Onde Orograph.  Cendres Volcan.







- Altitude de l'aérodrome : 297 ft
- Code IATA : ODB


LEBA - Córdoba

DERNIER METAR :
  • 161630Z 10003KT 070V140 9999 FEW040 23/13 Q1014

METARs EXPIRÉS :
  • 161600Z 10004KT 060V140 9999 FEW035 23/12 Q1014
  • 161530Z 11005KT 050V150 9999 FEW030 23/13 Q1014
  • 161500Z 10006KT 070V140 9999 FEW030 23/13 Q1014
  • 161430Z 10006KT 070V130 9999 FEW030 22/13 Q1014
  • 161400Z 10007KT 070V130 9999 FEW030 22/13 Q1013

TAF TAF LEBA
Valide du 16 à 15h jusqu'au 17 à 00h UTC


161400Z 1615/1624 09005KT 9999 FEW030
Pas de NOTAMs connus pour ce terrain.



MET'MAP, la Météo Aéronautique d'un coup d'oeil ! - Copyright ORBIFLY Décembre 2007 - Disclaimer

ORBIFLY MET'MAP TEAM :

Programmation & Développement : Alexandra Zaïnal
Conception & Développement : Baudouin d'Aumeries
Co-Programmation & Développement : Marc-Olivier Méhu
Soutien technique & logistique : Manuel Goepfert

Contact : metmap@orbifly.com




SOURCES & CREDITS :

   NOAA